Mansfield Hollow, Connecticut
Current Conditions -  °F | °C
As of 12:52 AM on Tuesday 27 Jan 2015 (Local Time) from KIJD Reporting Station
Moderate Snow Moderate Snow  
Wind Chill:   Ceiling: 800
Heat Index: 19°   Visibility: 0.5mi
Dew Point: 14°   Wind: 21mph
Humidity: 81%   Direction: 20°NNE
Pressure: 29.66"   Gusts: 33mph
Location:  41.7742°N, 72.196°W
Report Text: KIJD 270552Z AUTO 02018G29KT 1/2SM SN VV008 M07/M10 A2966 RMK AO2 PK WND 02033/0523 SLP048 P0000 60001 T10721100 11044 21072 56051
Loading
Personal Weather Stations






























Interactive Weather Map New forecast layout! Learn more

10-Day Weather Forecast

Advertisements
Track Severe Weather on mobile